Terminal Aerodrome Forecast
Issued by NWS Twin Cities, MN

Home | Current Version | Previous Version | Text Only | Print | Product List | Glossary On
Versions: 1 2 3 4 5 6 7 8 9 10 11 12
000
FTUS43 KMPX 012327
TAFSTC
TAF
KSTC 012327Z 0200/0224 14009KT P6SM SCT120
     FM020600 14007KT P6SM FEW090 SCT250
     FM021600 16015G21KT P6SM FEW040 BKN150=

USA.gov is the U.S. government's official web portal to all federal, state and local government web resources and services.